createdAt,value
2018-12-07T00:00:17.193Z,34.47
2018-12-07T00:02:45.619Z,33.87
2018-12-07T00:05:14.091Z,32.23
2018-12-07T00:07:42.536Z,32.83
2018-12-07T00:10:11.118Z,32.80
2018-12-07T00:12:39.571Z,32.57
2018-12-07T00:15:08.120Z,31.83
2018-12-07T00:17:36.568Z,31.17
2018-12-07T00:20:05.947Z,30.87
2018-12-07T00:22:34.369Z,31.13
2018-12-07T00:25:02.791Z,30.70
2018-12-07T00:27:31.774Z,30.60
2018-12-07T00:30:01.256Z,29.43
2018-12-07T00:32:29.901Z,28.70
2018-12-07T00:34:58.503Z,32.23
2018-12-07T00:37:27.211Z,35.47
2018-12-07T00:39:55.639Z,32.33
2018-12-07T00:42:24.059Z,29.97
2018-12-07T00:44:52.504Z,31.47
2018-12-07T00:47:20.948Z,29.37
2018-12-07T00:49:49.420Z,31.00
2018-12-07T00:52:35.188Z,31.03
2018-12-07T00:55:03.759Z,30.47
2018-12-07T00:57:32.182Z,30.43
2018-12-07T01:00:00.660Z,29.33
2018-12-07T01:02:29.799Z,29.87
2018-12-07T01:04:58.350Z,29.60
2018-12-07T01:07:26.818Z,29.57
2018-12-07T01:09:55.237Z,30.10
2018-12-07T01:12:23.707Z,29.63
2018-12-07T01:14:52.188Z,29.00
2018-12-07T01:17:20.623Z,28.03
2018-12-07T01:19:49.107Z,26.43
2018-12-07T01:22:17.517Z,27.23
2018-12-07T01:24:46.011Z,27.43
2018-12-07T01:27:14.471Z,29.17
2018-12-07T01:29:42.909Z,27.97
2018-12-07T01:32:11.322Z,28.47
2018-12-07T01:34:39.810Z,27.70
2018-12-07T01:37:08.515Z,27.33
2018-12-07T01:39:37.032Z,27.07
2018-12-07T01:42:05.500Z,27.03
2018-12-07T01:44:33.971Z,26.80
2018-12-07T01:47:02.419Z,27.13
2018-12-07T01:49:30.851Z,27.63
2018-12-07T01:51:59.310Z,28.50
2018-12-07T01:54:27.792Z,26.30
2018-12-07T01:56:56.236Z,28.03
2018-12-07T01:59:24.668Z,26.67
2018-12-07T02:01:53.113Z,26.17
2018-12-07T02:04:21.546Z,27.30
2018-12-07T02:06:49.986Z,26.13
2018-12-07T02:09:18.446Z,25.30
2018-12-07T02:11:46.860Z,24.00
2018-12-07T02:14:15.361Z,23.77
2018-12-07T02:16:43.828Z,24.77
2018-12-07T02:19:12.260Z,26.17
2018-12-07T02:21:40.740Z,26.20
2018-12-07T02:24:09.192Z,26.00
2018-12-07T02:26:37.649Z,28.17
2018-12-07T02:29:06.116Z,28.53
2018-12-07T02:31:34.540Z,30.30
2018-12-07T02:34:03.002Z,29.57
2018-12-07T02:36:31.438Z,27.50
2018-12-07T02:38:59.874Z,28.33
2018-12-07T02:41:28.344Z,29.57
2018-12-07T02:43:56.781Z,29.37
2018-12-07T02:46:25.267Z,29.67
2018-12-07T02:48:53.700Z,29.50
2018-12-07T02:51:22.108Z,29.80
2018-12-07T02:53:50.567Z,28.40
2018-12-07T02:56:18.999Z,29.17
2018-12-07T02:58:47.437Z,29.27
2018-12-07T03:01:15.908Z,31.20
2018-12-07T03:03:44.348Z,30.77
2018-12-07T03:06:12.816Z,29.73
2018-12-07T03:08:41.238Z,29.73
2018-12-07T03:11:09.672Z,31.33
2018-12-07T03:13:38.108Z,30.07
2018-12-07T03:16:06.581Z,29.83
2018-12-07T03:18:35.026Z,30.73
2018-12-07T03:21:03.441Z,30.37
2018-12-07T03:23:32.279Z,32.10
2018-12-07T03:26:00.783Z,30.80
2018-12-07T03:28:29.276Z,29.30
2018-12-07T03:30:58.068Z,30.97
2018-12-07T03:33:26.503Z,31.60
2018-12-07T03:35:54.946Z,31.23
2018-12-07T03:38:23.646Z,29.87
2018-12-07T03:40:52.093Z,30.93
2018-12-07T03:43:20.556Z,30.77
2018-12-07T03:45:49.028Z,30.33
2018-12-07T03:48:17.450Z,30.03
2018-12-07T03:50:46.006Z,29.63
2018-12-07T03:53:14.472Z,28.73
2018-12-07T03:55:42.899Z,30.23
2018-12-07T03:58:11.868Z,28.50
2018-12-07T04:00:41.163Z,30.33
2018-12-07T04:03:09.634Z,29.90
2018-12-07T04:05:38.210Z,29.67
2018-12-07T04:08:07.412Z,30.00
2018-12-07T04:10:35.819Z,30.03
2018-12-07T04:13:04.266Z,30.03
2018-12-07T04:15:32.829Z,28.23
2018-12-07T04:18:01.331Z,28.33
2018-12-07T04:20:29.780Z,28.50
2018-12-07T04:22:58.214Z,29.43
2018-12-07T04:25:26.689Z,28.67
2018-12-07T04:27:55.189Z,29.47
2018-12-07T04:30:24.662Z,29.63
2018-12-07T04:32:53.169Z,30.93
2018-12-07T04:35:21.652Z,30.40
2018-12-07T04:37:50.154Z,31.80
2018-12-07T04:40:18.583Z,30.93
2018-12-07T04:42:47.397Z,31.50
2018-12-07T04:45:15.958Z,30.50
2018-12-07T04:47:44.530Z,31.37
2018-12-07T04:50:12.971Z,30.67
2018-12-07T04:52:41.436Z,31.20
2018-12-07T04:55:09.891Z,29.70
2018-12-07T04:57:38.298Z,31.70
2018-12-07T05:00:07.936Z,31.83
2018-12-07T05:02:36.401Z,30.77
2018-12-07T05:05:05.125Z,31.23
2018-12-07T05:07:33.617Z,32.90
2018-12-07T05:10:02.074Z,33.47
2018-12-07T05:12:30.498Z,30.57
2018-12-07T05:14:59.776Z,35.40
2018-12-07T05:17:28.211Z,33.10
2018-12-07T05:19:56.710Z,35.70
2018-12-07T05:22:25.118Z,32.17
2018-12-07T05:24:53.560Z,30.13
2018-12-07T05:27:22.025Z,30.83
2018-12-07T05:29:50.537Z,31.40
2018-12-07T05:32:18.969Z,30.97
2018-12-07T05:34:47.450Z,30.63
2018-12-07T05:37:15.892Z,30.00
2018-12-07T05:39:44.604Z,43.30
2018-12-07T05:42:13.041Z,33.23
2018-12-07T05:44:41.478Z,31.03
2018-12-07T05:47:10.605Z,31.33
2018-12-07T05:49:39.067Z,31.93
2018-12-07T05:52:07.486Z,31.87
2018-12-07T05:54:35.989Z,31.73
2018-12-07T05:57:04.427Z,31.47
2018-12-07T05:59:32.883Z,31.47
2018-12-07T06:02:01.408Z,30.80
2018-12-07T06:04:29.877Z,32.03
2018-12-07T06:06:58.316Z,30.37
2018-12-07T06:09:26.789Z,31.73
2018-12-07T06:11:55.256Z,31.27
2018-12-07T06:14:23.770Z,33.37
2018-12-07T06:16:52.285Z,32.03
2018-12-07T06:19:20.726Z,30.83
2018-12-07T06:21:49.585Z,33.00
2018-12-07T06:24:18.408Z,32.23
2018-12-07T06:26:47.433Z,33.03
2018-12-07T06:29:15.947Z,32.47
2018-12-07T06:31:44.411Z,32.60
2018-12-07T06:34:13.091Z,33.20
2018-12-07T06:36:41.911Z,34.90
2018-12-07T06:39:10.584Z,41.37
2018-12-07T06:41:39.042Z,42.07
2018-12-07T06:44:07.548Z,36.00
2018-12-07T06:46:36.007Z,35.47
2018-12-07T06:49:07.755Z,30.87
2018-12-07T06:51:36.205Z,29.87
2018-12-07T06:54:04.919Z,32.33
2018-12-07T06:56:33.416Z,31.00
2018-12-07T06:59:01.888Z,29.87
2018-12-07T07:01:30.351Z,31.60
2018-12-07T07:03:58.801Z,30.63
2018-12-07T07:06:27.256Z,29.77
2018-12-07T07:08:55.724Z,29.97
2018-12-07T07:11:24.141Z,29.97
2018-12-07T07:13:52.645Z,31.07
2018-12-07T07:16:23.259Z,31.90
2018-12-07T07:18:51.602Z,31.83
2018-12-07T07:21:20.163Z,64.80
2018-12-07T07:23:48.636Z,33.50
2018-12-07T07:26:17.094Z,32.40
2018-12-07T07:28:45.553Z,32.37
2018-12-07T07:31:14.313Z,32.17
2018-12-07T07:33:42.801Z,31.40
2018-12-07T07:36:11.239Z,31.87
2018-12-07T07:38:39.936Z,30.10
2018-12-07T07:41:08.425Z,31.57
2018-12-07T07:43:36.888Z,30.60
2018-12-07T07:46:05.332Z,30.13
2018-12-07T07:48:33.792Z,30.13
2018-12-07T07:51:02.233Z,32.83
2018-12-07T07:53:31.083Z,31.17
2018-12-07T07:55:59.590Z,31.30
2018-12-07T07:58:28.260Z,31.30
2018-12-07T08:00:56.742Z,32.50
2018-12-07T08:03:25.217Z,31.30
2018-12-07T08:05:53.681Z,31.10
2018-12-07T08:08:22.163Z,30.23
2018-12-07T08:10:50.655Z,31.00
2018-12-07T08:13:19.106Z,30.33
2018-12-07T08:15:47.566Z,29.77
2018-12-07T08:18:16.044Z,30.63
2018-12-07T08:20:44.497Z,49.80
2018-12-07T08:23:14.878Z,49.50
2018-12-07T08:25:43.465Z,32.67
2018-12-07T08:28:11.910Z,30.50
2018-12-07T08:30:40.327Z,31.83
2018-12-07T08:33:08.812Z,31.03
2018-12-07T08:35:37.297Z,30.90
2018-12-07T08:38:05.741Z,31.10
2018-12-07T08:40:34.221Z,72.43
2018-12-07T08:43:02.897Z,31.50
2018-12-07T08:45:31.719Z,30.00
2018-12-07T08:48:00.246Z,30.30
2018-12-07T08:50:29.630Z,30.90
2018-12-07T08:52:58.785Z,30.50
2018-12-07T08:55:27.286Z,29.67
2018-12-07T08:57:55.796Z,28.60
2018-12-07T09:00:24.277Z,26.27
2018-12-07T09:02:52.705Z,26.93
2018-12-07T09:05:21.173Z,29.30
2018-12-07T09:07:49.585Z,28.70
2018-12-07T09:10:17.999Z,27.80
2018-12-07T09:12:46.504Z,28.80
2018-12-07T09:15:14.971Z,28.37
2018-12-07T09:17:43.456Z,27.80
2018-12-07T09:20:11.933Z,28.13
2018-12-07T09:22:40.370Z,30.10
2018-12-07T09:25:08.945Z,27.43
2018-12-07T09:27:37.369Z,29.53
2018-12-07T09:30:05.927Z,27.63
2018-12-07T09:32:34.385Z,29.00
2018-12-07T09:35:05.049Z,29.00
2018-12-07T09:37:33.483Z,28.60
2018-12-07T09:40:04.192Z,28.30
2018-12-07T09:42:32.646Z,28.70
2018-12-07T09:45:01.108Z,28.20
2018-12-07T09:47:29.874Z,27.97
2018-12-07T09:49:58.333Z,30.07
2018-12-07T09:52:27.005Z,29.63
2018-12-07T09:54:55.769Z,30.17
2018-12-07T09:57:25.025Z,31.70
2018-12-07T09:59:53.533Z,30.07
2018-12-07T10:02:22.184Z,29.13
2018-12-07T10:04:50.700Z,28.20
2018-12-07T10:07:19.184Z,49.17
2018-12-07T10:09:47.624Z,30.43
2018-12-07T10:12:16.085Z,27.63
2018-12-07T10:14:44.816Z,28.83
2018-12-07T10:17:14.077Z,27.03
2018-12-07T10:19:43.540Z,27.97
2018-12-07T10:22:12.250Z,27.40
2018-12-07T10:24:42.995Z,25.43
2018-12-07T10:27:11.421Z,26.03
2018-12-07T10:29:40.817Z,26.13
2018-12-07T10:32:09.246Z,26.77
2018-12-07T10:34:37.687Z,26.77
2018-12-07T10:37:06.160Z,27.20
2018-12-07T10:39:34.982Z,25.60
2018-12-07T10:42:03.426Z,25.00
2018-12-07T10:44:31.913Z,24.97
2018-12-07T10:47:00.374Z,25.20
2018-12-07T10:49:30.606Z,24.77
2018-12-07T10:52:00.850Z,24.77
2018-12-07T10:54:29.567Z,23.93
2018-12-07T10:57:00.096Z,24.97
2018-12-07T10:59:28.597Z,22.90
2018-12-07T11:02:02.639Z,21.70
2018-12-07T11:04:36.804Z,22.70
2018-12-07T11:07:11.011Z,21.63
2018-12-07T11:12:49.877Z,22.37
2018-12-07T11:15:24.338Z,20.50
2018-12-07T11:17:58.769Z,21.03
2018-12-07T11:20:33.305Z,20.27
2018-12-07T11:23:07.461Z,21.67
2018-12-07T11:25:42.425Z,21.30
2018-12-07T11:28:16.463Z,21.03
2018-12-07T11:33:49.727Z,20.27
2018-12-07T11:36:18.856Z,22.00
2018-12-07T11:38:48.197Z,20.97
2018-12-07T11:41:17.101Z,24.50
2018-12-07T11:43:45.565Z,22.67
2018-12-07T11:46:14.066Z,22.30
2018-12-07T11:48:44.385Z,21.27
2018-12-07T11:51:13.518Z,20.97
2018-12-07T11:53:42.066Z,21.83
2018-12-07T11:56:10.556Z,23.30
2018-12-07T11:58:39.013Z,22.83
2018-12-07T12:01:07.935Z,21.50
2018-12-07T12:03:36.424Z,22.07
2018-12-07T12:06:04.889Z,20.57
2018-12-07T12:08:33.338Z,21.00
2018-12-07T12:11:04.164Z,20.60
2018-12-07T12:13:32.857Z,20.90
2018-12-07T12:16:01.588Z,20.03
2018-12-07T12:18:30.117Z,20.03
2018-12-07T12:20:59.105Z,19.37
2018-12-07T12:23:28.205Z,21.73
2018-12-07T12:25:56.693Z,21.23
2018-12-07T12:28:25.121Z,20.97
2018-12-07T12:30:53.549Z,22.27
2018-12-07T12:33:22.596Z,19.17
2018-12-07T12:35:51.956Z,20.70
2018-12-07T12:38:23.005Z,19.23
2018-12-07T12:40:51.758Z,19.97
2018-12-07T12:43:20.210Z,18.70
2018-12-07T12:45:49.344Z,18.17
2018-12-07T12:48:18.432Z,17.33
2018-12-07T12:50:47.706Z,15.53
2018-12-07T12:53:16.154Z,16.33
2018-12-07T12:55:44.640Z,30.00
2018-12-07T12:58:13.105Z,14.03
2018-12-07T13:00:41.554Z,14.83
2018-12-07T13:03:10.029Z,14.87
2018-12-07T13:05:38.492Z,14.23
2018-12-07T13:08:07.973Z,14.73
2018-12-07T13:10:36.468Z,16.73
2018-12-07T13:13:04.925Z,13.80
2018-12-07T13:15:33.332Z,12.53
2018-12-07T13:18:03.703Z,10.27
2018-12-07T13:20:32.128Z,11.10
2018-12-07T13:23:02.949Z,10.03
2018-12-07T13:25:31.420Z,10.20
2018-12-07T13:28:01.389Z,9.40
2018-12-07T13:30:29.846Z,9.87
2018-12-07T13:33:00.033Z,11.67
2018-12-07T13:35:28.743Z,12.50
2018-12-07T13:37:57.213Z,12.83
2018-12-07T13:40:25.859Z,13.43
2018-12-07T13:42:54.787Z,14.70
2018-12-07T13:45:23.916Z,14.30
2018-12-07T13:47:52.821Z,15.40
2018-12-07T13:50:26.904Z,14.90
2018-12-07T13:52:55.649Z,14.40
2018-12-07T13:55:24.211Z,15.10
2018-12-07T13:57:53.691Z,14.53
2018-12-07T14:00:22.249Z,14.00
2018-12-07T14:02:50.914Z,14.70
2018-12-07T14:05:19.482Z,13.17
2018-12-07T14:07:48.130Z,14.93
2018-12-07T14:10:16.773Z,13.93
2018-12-07T14:12:45.553Z,15.20
2018-12-07T14:15:14.368Z,16.00
2018-12-07T14:17:43.786Z,18.27
2018-12-07T14:20:12.986Z,17.67
2018-12-07T14:22:41.670Z,16.83
2018-12-07T14:25:10.202Z,16.90
2018-12-07T14:27:41.967Z,17.93
2018-12-07T14:30:12.508Z,16.93
2018-12-07T14:32:43.280Z,16.83
2018-12-07T14:35:11.910Z,15.93
2018-12-07T14:37:40.592Z,15.67
2018-12-07T14:40:10.179Z,16.17
2018-12-07T14:42:38.783Z,17.90
2018-12-07T14:45:07.759Z,17.77
2018-12-07T14:47:37.440Z,17.73
2018-12-07T14:50:06.285Z,17.70
2018-12-07T14:52:35.290Z,16.37
2018-12-07T14:55:04.813Z,13.57
2018-12-07T14:57:33.687Z,11.27
2018-12-07T15:00:02.382Z,11.10
2018-12-07T15:02:30.857Z,10.13
2018-12-07T15:04:59.685Z,10.07
2018-12-07T15:07:28.262Z,9.83
2018-12-07T15:09:56.888Z,9.60
2018-12-07T15:12:25.513Z,10.33
2018-12-07T15:14:54.057Z,10.00
2018-12-07T15:17:22.705Z,12.77
2018-12-07T15:19:51.352Z,15.93
2018-12-07T15:22:20.029Z,15.60
2018-12-07T15:24:49.676Z,16.80
2018-12-07T15:27:18.405Z,17.47
2018-12-07T15:29:46.919Z,22.30
2018-12-07T15:32:15.870Z,22.57
2018-12-07T15:34:45.551Z,15.57
2018-12-07T15:37:14.754Z,16.20
2018-12-07T15:39:43.268Z,16.50
2018-12-07T15:42:12.786Z,17.90
2018-12-07T15:44:43.906Z,18.17
2018-12-07T15:47:14.096Z,18.37
2018-12-07T15:49:43.008Z,17.33
2018-12-07T15:52:11.736Z,17.07
2018-12-07T15:54:40.882Z,16.97
2018-12-07T15:57:10.912Z,18.33
2018-12-07T15:59:39.460Z,27.07
2018-12-07T16:02:08.110Z,19.97
2018-12-07T16:04:37.100Z,19.13
2018-12-07T16:07:06.412Z,19.23
2018-12-07T16:09:35.587Z,56.93
2018-12-07T16:12:04.562Z,26.43
2018-12-07T16:14:35.098Z,21.77
2018-12-07T16:17:05.408Z,18.93
2018-12-07T16:19:34.123Z,45.07
2018-12-07T16:22:02.670Z,26.47
2018-12-07T16:24:32.121Z,23.27
2018-12-07T16:27:01.556Z,21.27
2018-12-07T16:29:30.809Z,23.00
2018-12-07T16:31:59.425Z,20.70
2018-12-07T16:34:28.248Z,20.03
2018-12-07T16:36:57.051Z,20.00
2018-12-07T16:39:25.767Z,19.10
2018-12-07T16:41:54.380Z,18.07
2018-12-07T16:44:22.925Z,20.50
2018-12-07T16:46:52.161Z,19.90
2018-12-07T16:49:21.576Z,20.97
2018-12-07T16:54:29.809Z,20.03
2018-12-07T16:56:58.461Z,19.10
2018-12-07T16:59:28.693Z,19.23
2018-12-07T17:01:57.431Z,20.57
2018-12-07T17:04:27.094Z,24.03
2018-12-07T17:06:55.989Z,30.47
2018-12-07T17:09:25.676Z,26.00
2018-12-07T17:11:54.682Z,23.83
2018-12-07T17:14:23.808Z,21.43
2018-12-07T17:16:53.468Z,22.77
2018-12-07T17:19:23.170Z,26.40
2018-12-07T17:21:53.123Z,22.97
2018-12-07T17:24:23.452Z,19.63
2018-12-07T17:26:52.927Z,21.50
2018-12-07T17:29:22.606Z,23.07
2018-12-07T17:31:51.520Z,22.70
2018-12-07T17:34:21.618Z,100.43
2018-12-07T17:36:50.385Z,76.80
2018-12-07T17:39:19.158Z,33.37
2018-12-07T17:41:48.835Z,25.80
2018-12-07T17:44:19.821Z,25.90
2018-12-07T17:46:48.558Z,25.17
2018-12-07T17:49:17.157Z,22.90
2018-12-07T17:51:45.897Z,25.53
2018-12-07T17:54:14.642Z,23.97
2018-12-07T17:56:43.339Z,24.33
2018-12-07T17:59:12.693Z,24.77
2018-12-07T18:01:42.767Z,25.23
2018-12-07T18:04:12.341Z,26.53
2018-12-07T18:06:41.327Z,26.70
2018-12-07T18:09:11.419Z,26.27
2018-12-07T18:11:48.382Z,26.83
2018-12-07T18:14:18.143Z,27.07
2018-12-07T18:16:49.512Z,26.63
2018-12-07T18:19:18.726Z,28.10
2018-12-07T18:21:47.773Z,26.53
2018-12-07T18:24:17.731Z,25.47
2018-12-07T18:26:47.688Z,25.70
2018-12-07T18:29:16.328Z,24.53
2018-12-07T18:31:45.271Z,27.00
2018-12-07T18:34:15.361Z,28.63
2018-12-07T18:36:44.820Z,36.63
2018-12-07T18:39:14.374Z,38.37
2018-12-07T18:41:44.856Z,35.47
2018-12-07T18:44:14.295Z,34.63
2018-12-07T18:46:42.925Z,38.40
2018-12-07T18:49:11.721Z,30.93
2018-12-07T18:51:41.610Z,34.67
2018-12-07T18:54:10.757Z,31.00
2018-12-07T18:56:39.580Z,30.27
2018-12-07T18:59:09.133Z,28.77
2018-12-07T19:01:37.776Z,32.87
2018-12-07T19:04:06.503Z,29.93
2018-12-07T19:06:35.814Z,29.43
2018-12-07T19:09:08.448Z,30.40
2018-12-07T19:11:37.889Z,30.80
2018-12-07T19:14:10.592Z,30.57
2018-12-07T19:16:39.506Z,30.87
2018-12-07T19:19:08.885Z,30.13
2018-12-07T19:21:40.222Z,29.53
2018-12-07T19:24:13.352Z,27.73
2018-12-07T19:26:42.023Z,25.40
2018-12-07T19:29:11.992Z,25.30
2018-12-07T19:31:44.135Z,27.17
2018-12-07T19:34:13.811Z,26.70
2018-12-07T19:36:43.218Z,30.07
2018-12-07T19:39:11.938Z,27.23
2018-12-07T19:41:40.886Z,26.07
2018-12-07T19:44:10.915Z,26.57
2018-12-07T19:46:43.898Z,40.87
2018-12-07T19:49:13.612Z,34.17
2018-12-07T19:51:43.309Z,29.90
2018-12-07T19:54:12.574Z,27.97
2018-12-07T19:56:42.431Z,27.23
2018-12-07T19:59:11.993Z,27.83
2018-12-07T20:01:41.652Z,30.93
2018-12-07T20:04:11.036Z,33.07
2018-12-07T20:06:42.799Z,31.07
2018-12-07T20:09:16.071Z,30.63
2018-12-07T20:12:04.446Z,35.87
2018-12-07T20:14:36.116Z,36.67
2018-12-07T20:17:05.182Z,38.57
2018-12-07T20:19:34.688Z,39.10
2018-12-07T20:22:04.362Z,39.07
2018-12-07T20:24:33.332Z,37.00
2018-12-07T20:27:02.847Z,34.87
2018-12-07T20:29:32.008Z,36.60
2018-12-07T20:32:00.741Z,40.00
2018-12-07T20:34:29.691Z,38.30
2018-12-07T20:37:00.625Z,38.93
2018-12-07T20:39:29.815Z,37.77
2018-12-07T20:41:59.260Z,36.17
2018-12-07T20:44:28.339Z,35.37
2018-12-07T20:46:58.218Z,35.77
2018-12-07T20:49:28.725Z,36.23
2018-12-07T20:52:00.657Z,34.77
2018-12-07T20:54:29.994Z,36.80
2018-12-07T20:56:58.735Z,41.27
2018-12-07T20:59:28.929Z,41.57
2018-12-07T21:02:01.613Z,41.23
2018-12-07T21:04:33.995Z,42.37
2018-12-07T21:07:19.598Z,36.47
2018-12-07T21:09:48.873Z,36.97
2018-12-07T21:12:27.079Z,32.57
2018-12-07T21:14:57.485Z,32.03
2018-12-07T21:17:26.607Z,30.73
2018-12-07T21:19:56.583Z,28.63
2018-12-07T21:22:27.269Z,30.90
2018-12-07T21:24:56.226Z,31.90
2018-12-07T21:27:24.987Z,31.43
2018-12-07T21:30:04.803Z,33.83
2018-12-07T21:32:33.813Z,32.87
2018-12-07T21:35:06.178Z,35.50
2018-12-07T21:37:35.151Z,33.00
2018-12-07T21:40:11.338Z,32.90
2018-12-07T21:42:41.534Z,33.47
2018-12-07T21:45:11.002Z,33.70
2018-12-07T21:47:46.692Z,35.80
2018-12-07T21:50:17.779Z,32.77
2018-12-07T21:52:49.695Z,36.37
2018-12-07T21:55:18.550Z,34.33
2018-12-07T21:57:47.591Z,34.77
2018-12-07T22:00:16.471Z,31.03
2018-12-07T22:02:45.145Z,29.70
2018-12-07T22:05:13.709Z,28.83
2018-12-07T22:07:42.847Z,29.97
2018-12-07T22:10:12.201Z,29.87
2018-12-07T22:12:42.791Z,29.27
2018-12-07T22:15:11.602Z,29.57
2018-12-07T22:17:40.399Z,29.00
2018-12-07T22:20:13.688Z,27.90
2018-12-07T22:22:43.234Z,28.40
2018-12-07T22:25:11.757Z,32.83
2018-12-07T22:27:41.284Z,28.93
2018-12-07T22:30:11.157Z,26.73
2018-12-07T22:32:39.894Z,26.23
2018-12-07T22:35:08.509Z,25.47
2018-12-07T22:37:37.209Z,26.73
2018-12-07T22:40:06.849Z,27.50
2018-12-07T22:42:35.725Z,27.83
2018-12-07T22:45:05.364Z,29.07
2018-12-07T22:47:35.714Z,29.23
2018-12-07T22:50:04.698Z,29.00
2018-12-07T22:52:33.138Z,28.87
2018-12-07T22:55:01.640Z,28.90
2018-12-07T22:57:30.469Z,28.00
2018-12-07T22:59:58.893Z,28.97
2018-12-07T23:02:29.035Z,29.53
2018-12-07T23:04:57.737Z,28.20
2018-12-07T23:07:26.470Z,27.37
2018-12-07T23:09:54.957Z,29.23
2018-12-07T23:12:23.978Z,28.70
2018-12-07T23:14:52.480Z,28.50
2018-12-07T23:17:21.290Z,29.83
2018-12-07T23:19:49.993Z,32.30
2018-12-07T23:22:18.475Z,32.60
2018-12-07T23:24:47.250Z,33.13
2018-12-07T23:27:16.904Z,34.53
2018-12-07T23:29:45.754Z,32.87
2018-12-07T23:32:14.238Z,31.40
2018-12-07T23:34:42.917Z,31.60
2018-12-07T23:37:11.374Z,31.93
2018-12-07T23:39:41.572Z,32.37
2018-12-07T23:42:10.021Z,31.10
2018-12-07T23:44:38.695Z,30.70
2018-12-07T23:47:07.219Z,29.53
2018-12-07T23:49:35.658Z,28.73
2018-12-07T23:52:04.096Z,28.47
2018-12-07T23:54:32.561Z,30.20
2018-12-07T23:57:00.985Z,28.90
2018-12-07T23:59:29.470Z,28.87
